Time;durP1;ratioP1;P1;durP2;ratioP2;P2;SDS_P1;SDS_P2;PMS_P1;PMS_P2;Temp;Humidity;BMP_temperature;BMP_pressure;BME280_temperature;BME280_humidity;BME280_pressure;Samples;Min_cycle;Max_cycle;Signal;HPM_P1;HPM_P2
2022/03/18 00:00:33;;;;;;;19.00;18.30;;;2.40;99.90;;;;;;4359611;32;20204;-61
2022/03/18 00:03:05;;;;;;;19.97;19.23;;;2.40;99.90;;;;;;4362623;32;20193;-60
2022/03/18 00:05:36;;;;;;;19.57;18.77;;;2.40;99.90;;;;;;4362407;32;20245;-62
2022/03/18 00:08:04;;;;;;;19.97;19.17;;;2.50;99.90;;;;;;4363571;32;20186;-59
2022/03/18 00:10:33;;;;;;;20.50;19.70;;;2.40;99.90;;;;;;4367264;32;20174;-61
2022/03/18 00:12:59;;;;;;;18.33;17.63;;;2.40;99.90;;;;;;4362127;32;20173;-59
2022/03/18 00:15:27;;;;;;;20.13;19.23;;;2.40;99.90;;;;;;4359688;33;20211;-60
2022/03/18 00:17:55;;;;;;;18.13;17.43;;;2.40;99.90;;;;;;4359697;33;20167;-61
2022/03/18 00:20:22;;;;;;;18.87;18.17;;;2.40;99.90;;;;;;4359296;33;20178;-61
2022/03/18 00:22:49;;;;;;;20.37;19.60;;;2.50;99.90;;;;;;4360126;33;20186;-60
2022/03/18 00:25:19;;;;;;;21.30;20.33;;;2.50;99.90;;;;;;4359915;33;20570;-60
2022/03/18 00:27:48;;;;;;;23.13;22.23;;;2.50;99.90;;;;;;4355841;33;20199;-60
2022/03/18 00:30:17;;;;;;;20.50;19.70;;;2.50;99.90;;;;;;4353565;33;20170;-61
2022/03/18 00:32:45;;;;;;;22.37;21.53;;;2.50;99.90;;;;;;4347690;33;20209;-60
2022/03/18 00:35:12;;;;;;;18.60;17.90;;;2.40;99.90;;;;;;4361355;32;20165;-60
2022/03/18 00:37:40;;;;;;;20.80;20.00;;;2.40;99.90;;;;;;4377693;32;20202;-61
2022/03/18 00:40:09;;;;;;;20.17;19.37;;;2.40;99.90;;;;;;4376463;32;20181;-60
2022/03/18 00:42:38;;;;;;;18.77;18.00;;;2.30;99.90;;;;;;4364731;32;20513;-60
2022/03/18 00:45:08;;;;;;;19.33;18.53;;;2.30;99.90;;;;;;4367092;32;20168;-60
2022/03/18 00:53:03;;;;;;;20.27;19.47;;;2.20;99.90;;;;;;4352462;33;20500;-60
2022/03/18 00:55:30;;;;;;;18.63;17.93;;;2.20;99.90;;;;;;4361489;32;20218;-59
2022/03/18 00:57:57;;;;;;;17.67;16.97;;;2.20;99.90;;;;;;4357314;32;20527;-60
2022/03/18 01:00:25;;;;;;;20.40;19.60;;;2.10;99.90;;;;;;4374264;32;20168;-60
2022/03/18 01:02:52;;;;;;;17.70;17.07;;;2.10;99.90;;;;;;4376827;32;20149;-60
2022/03/18 01:05:19;;;;;;;18.47;17.77;;;2.10;99.90;;;;;;4376992;32;20178;-60
2022/03/18 01:07:46;;;;;;;18.80;18.10;;;2.10;99.90;;;;;;4391418;32;20249;-60
2022/03/18 01:10:12;;;;;;;17.60;16.90;;;2.10;99.90;;;;;;4392254;32;20142;-60
2022/03/18 01:12:39;;;;;;;20.17;19.30;;;2.00;99.90;;;;;;4393046;32;20627;-60
2022/03/18 01:15:07;;;;;;;18.57;17.87;;;2.00;99.90;;;;;;4390801;32;20230;-59
2022/03/18 01:17:35;;;;;;;17.53;16.90;;;1.90;99.90;;;;;;4391764;32;20520;-60
2022/03/18 01:20:03;;;;;;;20.70;19.90;;;2.00;99.90;;;;;;4392850;32;20505;-60
2022/03/18 01:22:30;;;;;;;19.23;18.33;;;2.00;99.90;;;;;;4391489;32;20191;-60
2022/03/18 01:24:56;;;;;;;19.30;18.50;;;2.00;99.90;;;;;;4391572;32;20249;-61
2022/03/18 01:27:23;;;;;;;18.47;17.67;;;1.90;99.90;;;;;;4390995;32;20247;-60
2022/03/18 01:29:50;;;;;;;18.83;18.13;;;2.00;99.90;;;;;;4391570;32;20167;-60
2022/03/18 01:32:17;;;;;;;20.97;20.07;;;1.90;99.90;;;;;;4391325;32;20216;-59
2022/03/18 01:34:45;;;;;;;18.80;18.10;;;1.80;99.90;;;;;;4391424;32;20220;-60
2022/03/18 01:37:12;;;;;;;17.10;16.50;;;1.90;99.90;;;;;;4391396;32;20192;-60
2022/03/18 01:39:38;;;;;;;18.40;17.70;;;1.90;99.90;;;;;;4392847;32;20169;-60
2022/03/18 01:42:06;;;;;;;17.70;17.00;;;1.80;99.90;;;;;;4391612;32;20187;-61
2022/03/18 01:44:39;;;;;;;20.93;20.13;;;1.80;99.90;;;;;;4391040;32;20211;-60
2022/03/18 01:47:09;;;;;;;17.70;17.00;;;1.80;99.90;;;;;;4390376;32;20238;-60
2022/03/18 01:49:37;;;;;;;20.40;19.40;;;1.70;99.90;;;;;;4391185;32;20201;-60
2022/03/18 01:52:06;;;;;;;17.77;17.07;;;1.60;99.90;;;;;;4391602;32;20168;-59
2022/03/18 01:57:22;;;;;;;20.70;19.80;;;1.60;99.90;;;;;;4390940;32;20184;-59
2022/03/18 01:59:52;;;;;;;19.03;18.23;;;1.70;99.90;;;;;;4390793;32;20596;-60
2022/03/18 02:02:20;;;;;;;19.67;18.93;;;1.70;99.90;;;;;;4390733;32;20145;-59
2022/03/18 02:04:47;;;;;;;17.77;17.07;;;1.60;99.90;;;;;;4391489;32;20167;-60
2022/03/18 02:07:16;;;;;;;17.20;16.60;;;1.60;99.90;;;;;;4390880;32;20231;-60
2022/03/18 02:09:44;;;;;;;18.10;17.40;;;1.60;99.90;;;;;;4391312;32;20164;-60
2022/03/18 02:12:12;;;;;;;18.33;17.63;;;1.60;99.90;;;;;;4390866;32;20152;-60
2022/03/18 02:14:41;;;;;;;19.00;18.30;;;1.60;99.90;;;;;;4389897;32;20166;-60
2022/03/18 02:17:10;;;;;;;17.60;16.80;;;1.60;99.90;;;;;;4390792;32;20659;-60
2022/03/18 02:19:39;;;;;;;18.50;17.80;;;1.50;99.90;;;;;;4390213;32;20199;-60
2022/03/18 02:22:10;;;;;;;20.80;20.00;;;1.50;99.90;;;;;;4379851;32;20691;-59
2022/03/18 02:24:39;;;;;;;18.67;17.97;;;1.50;99.90;;;;;;4391085;32;20144;-60
2022/03/18 02:27:06;;;;;;;19.47;18.67;;;1.50;99.90;;;;;;4390704;32;20184;-60
2022/03/18 02:29:34;;;;;;;20.07;19.23;;;1.50;99.90;;;;;;4391291;32;20148;-60
2022/03/18 02:32:02;;;;;;;20.50;19.70;;;1.50;99.90;;;;;;4390690;32;20204;-60
2022/03/18 02:34:29;;;;;;;21.80;20.90;;;1.50;99.90;;;;;;4390917;32;20559;-60
2022/03/18 02:36:56;;;;;;;18.87;18.17;;;1.50;99.90;;;;;;4390612;32;20607;-60
2022/03/18 02:39:23;;;;;;;19.30;18.53;;;1.50;99.90;;;;;;4388977;32;20179;-60
2022/03/18 02:41:52;;;;;;;19.30;18.50;;;1.40;99.90;;;;;;4389904;32;20233;-60
2022/03/18 02:44:19;;;;;;;18.63;17.93;;;1.40;99.90;;;;;;4390385;32;20223;-59
2022/03/18 02:46:46;;;;;;;19.87;19.07;;;1.30;99.90;;;;;;4390331;32;20252;-60
2022/03/18 02:49:12;;;;;;;19.20;18.50;;;1.30;99.90;;;;;;4389846;32;20549;-60
2022/03/18 02:51:39;;;;;;;18.70;18.00;;;1.30;99.90;;;;;;4390247;32;20224;-60
2022/03/18 02:54:07;;;;;;;18.53;17.83;;;1.30;99.90;;;;;;4389507;32;20196;-60
2022/03/18 02:56:35;;;;;;;20.10;19.30;;;1.30;99.90;;;;;;4389676;32;20278;-60
2022/03/18 02:59:04;;;;;;;20.47;19.67;;;1.30;99.90;;;;;;4389297;32;20236;-60
2022/03/18 03:01:31;;;;;;;20.03;19.07;;;1.30;99.90;;;;;;4389819;32;20182;-60
2022/03/18 03:03:58;;;;;;;22.17;21.30;;;1.30;99.90;;;;;;4389803;32;20152;-59
2022/03/18 03:09:19;;;;;;;18.27;17.53;;;1.30;99.90;;;;;;4342844;33;20149;-60
2022/03/18 03:11:46;;;;;;;18.90;18.20;;;1.30;99.90;;;;;;4342393;33;20208;-60
2022/03/18 03:14:14;;;;;;;18.87;18.17;;;1.30;99.90;;;;;;4342888;33;20617;-60
2022/03/18 03:16:42;;;;;;;19.93;19.13;;;1.30;99.90;;;;;;4341873;33;20249;-60
2022/03/18 03:19:09;;;;;;;18.33;17.63;;;1.30;99.90;;;;;;4342748;33;20173;-60
2022/03/18 03:21:37;;;;;;;18.57;17.87;;;1.30;99.90;;;;;;4343151;33;20243;-59
2022/03/18 03:24:04;;;;;;;19.33;18.53;;;1.30;99.90;;;;;;4342506;33;20227;-60
2022/03/18 03:26:31;;;;;;;19.13;18.43;;;1.30;99.90;;;;;;4341702;33;20192;-60
2022/03/18 03:28:58;;;;;;;20.50;19.70;;;1.20;99.90;;;;;;4341867;33;20176;-58
2022/03/18 03:31:27;;;;;;;18.97;18.27;;;1.20;99.90;;;;;;4342196;33;20566;-59
2022/03/18 03:33:54;;;;;;;18.67;17.97;;;1.20;99.90;;;;;;4342199;33;20157;-60
2022/03/18 03:36:23;;;;;;;21.00;20.20;;;1.20;99.90;;;;;;4343194;33;20240;-60
2022/03/18 03:38:50;;;;;;;19.73;18.93;;;1.10;99.90;;;;;;4342113;33;20162;-59
2022/03/18 03:41:20;;;;;;;20.13;19.37;;;1.20;99.90;;;;;;4342549;33;20187;-59
2022/03/18 03:43:47;;;;;;;19.30;18.60;;;1.20;99.90;;;;;;4342511;33;20165;-59
2022/03/18 03:46:14;;;;;;;18.60;17.90;;;1.10;99.90;;;;;;4387266;32;20227;-61
2022/03/18 03:48:42;;;;;;;19.80;19.00;;;1.00;99.90;;;;;;4389735;32;20176;-61
2022/03/18 03:51:09;;;;;;;21.20;20.40;;;1.00;99.90;;;;;;4389425;32;20540;-61
2022/03/18 03:53:36;;;;;;;21.53;20.63;;;1.00;99.90;;;;;;4389160;32;20167;-61
2022/03/18 03:56:02;;;;;;;19.30;18.60;;;1.00;99.90;;;;;;4389513;32;20219;-60
2022/03/18 03:58:29;;;;;;;23.13;22.20;;;1.10;99.90;;;;;;4389763;32;20516;-59
2022/03/18 04:00:56;;;;;;;22.67;21.40;;;1.10;99.90;;;;;;4389922;32;20266;-62
2022/03/18 04:03:23;;;;;;;19.93;18.73;;;1.10;99.90;;;;;;4389628;32;20148;-61
2022/03/18 04:05:51;;;;;;;19.97;19.17;;;1.10;99.90;;;;;;4390109;32;20171;-60
2022/03/18 04:08:18;;;;;;;20.07;19.27;;;1.10;99.90;;;;;;4389698;32;20189;-60
2022/03/18 04:10:45;;;;;;;23.57;22.47;;;1.10;99.90;;;;;;4391675;32;20183;-61
2022/03/18 04:13:12;;;;;;;19.80;19.00;;;1.10;99.90;;;;;;4392728;32;20154;-60
2022/03/18 04:15:39;;;;;;;20.63;19.83;;;1.10;99.90;;;;;;4392529;32;20160;-59
2022/03/18 04:18:06;;;;;;;21.07;20.17;;;1.10;99.90;;;;;;4393750;32;20198;-60
2022/03/18 04:20:33;;;;;;;20.73;19.73;;;1.10;99.90;;;;;;4392343;32;20148;-62
2022/03/18 04:23:01;;;;;;;21.37;20.43;;;1.10;99.90;;;;;;4393878;32;20155;-60
2022/03/18 04:25:30;;;;;;;21.07;20.27;;;1.00;99.90;;;;;;4392649;32;20186;-60
2022/03/18 04:27:57;;;;;;;20.80;20.00;;;1.00;99.90;;;;;;4392174;32;20148;-61
2022/03/18 04:30:24;;;;;;;23.23;22.33;;;1.00;99.90;;;;;;4392422;32;20167;-61
2022/03/18 04:32:51;;;;;;;26.30;25.20;;;1.00;99.90;;;;;;4402980;32;20223;-61
2022/03/18 04:35:18;;;;;;;25.63;24.53;;;1.00;99.90;;;;;;4396562;32;20207;-61
2022/03/18 04:37:45;;;;;;;26.00;24.93;;;0.90;99.90;;;;;;4392567;32;20531;-61
2022/03/18 04:40:14;;;;;;;24.47;23.53;;;0.90;99.90;;;;;;4391889;32;20156;-61
2022/03/18 04:42:44;;;;;;;30.07;28.67;;;0.90;99.90;;;;;;4391952;32;20568;-61
2022/03/18 04:45:11;;;;;;;31.47;30.17;;;0.90;99.90;;;;;;4391835;32;20174;-61
2022/03/18 04:47:38;;;;;;;34.67;33.27;;;0.90;99.90;;;;;;4379728;32;20164;-61
2022/03/18 04:50:06;;;;;;;39.67;38.07;;;1.00;99.90;;;;;;4392563;32;20144;-61
2022/03/18 04:52:33;;;;;;;40.20;38.50;;;1.00;99.90;;;;;;4392021;32;20166;-61
2022/03/18 04:55:00;;;;;;;40.13;38.63;;;1.00;99.90;;;;;;4391885;32;20228;-61
2022/03/18 04:57:28;;;;;;;41.77;40.07;;;1.00;99.90;;;;;;4392330;32;20259;-62
2022/03/18 04:59:56;;;;;;;47.80;45.83;;;0.90;99.90;;;;;;4391448;32;20168;-59
2022/03/18 05:02:24;;;;;;;54.83;52.53;;;0.90;99.90;;;;;;4391481;32;20149;-61
2022/03/18 05:04:53;;;;;;;66.57;63.97;;;0.90;99.90;;;;;;4391715;32;20161;-60
2022/03/18 05:07:20;;;;;;;71.70;68.87;;;0.90;99.90;;;;;;4393122;32;20162;-59
2022/03/18 05:09:48;;;;;;;74.43;71.47;;;0.90;99.90;;;;;;4391103;32;20247;-60
2022/03/18 05:12:16;;;;;;;76.93;73.93;;;0.90;99.90;;;;;;4392306;32;20195;-59
2022/03/18 05:14:45;;;;;;;80.00;76.87;;;0.90;99.90;;;;;;4392340;32;20224;-59
2022/03/18 05:17:12;;;;;;;83.87;80.43;;;0.90;99.90;;;;;;4391728;32;20170;-59
2022/03/18 05:19:39;;;;;;;84.70;81.37;;;0.90;99.90;;;;;;4393360;32;20156;-61
2022/03/18 05:22:07;;;;;;;86.07;82.70;;;0.80;99.90;;;;;;4391121;32;20208;-59
2022/03/18 05:24:34;;;;;;;85.60;82.23;;;0.80;99.90;;;;;;4392977;32;20194;-61
2022/03/18 05:27:01;;;;;;;91.83;88.23;;;0.70;99.90;;;;;;4391248;32;20627;-61
2022/03/18 05:29:28;;;;;;;89.13;85.63;;;0.70;99.90;;;;;;4392008;32;20271;-59
2022/03/18 05:31:57;;;;;;;89.77;86.13;;;0.70;99.90;;;;;;4391498;32;20152;-61
2022/03/18 05:34:24;;;;;;;90.13;86.53;;;0.70;99.90;;;;;;4391611;32;20152;-61
2022/03/18 05:36:51;;;;;;;92.50;88.83;;;0.70;99.90;;;;;;4391989;32;20521;-61
2022/03/18 05:39:18;;;;;;;90.83;87.20;;;0.70;99.90;;;;;;4392112;32;20231;-61
2022/03/18 05:41:45;;;;;;;93.23;89.63;;;0.70;99.90;;;;;;4391715;32;20162;-60
2022/03/18 05:44:12;;;;;;;96.60;92.70;;;0.70;99.90;;;;;;4390883;32;20450;-61
2022/03/18 05:46:40;;;;;;;96.70;92.87;;;0.80;99.90;;;;;;4391324;32;20140;-60
2022/03/18 05:49:08;;;;;;;107.50;103.23;;;0.70;99.90;;;;;;4391170;32;20168;-61
2022/03/18 05:51:35;;;;;;;109.67;105.40;;;0.80;99.90;;;;;;4390863;32;20148;-61
2022/03/18 05:54:02;;;;;;;110.23;105.90;;;0.80;99.90;;;;;;4390521;32;20163;-62
2022/03/18 05:59:14;;;;;;;114.57;110.10;;;0.90;99.90;;;;;;4390162;32;20193;-61
2022/03/18 06:01:41;;;;;;;112.20;107.70;;;0.90;99.90;;;;;;4389824;32;20152;-61
2022/03/18 06:04:10;;;;;;;113.43;109.00;;;0.90;99.90;;;;;;4390113;32;20247;-61
2022/03/18 06:06:38;;;;;;;121.23;116.43;;;1.00;99.90;;;;;;4376439;32;20179;-62
2022/03/18 06:11:49;;;;;;;118.60;113.77;;;1.10;99.90;;;;;;4389832;32;20256;-60
2022/03/18 06:14:16;;;;;;;110.30;105.90;;;1.20;99.90;;;;;;4389470;32;20234;-60
2022/03/18 06:16:43;;;;;;;110.43;106.00;;;1.20;99.90;;;;;;4389090;32;20202;-60
2022/03/18 06:19:13;;;;;;;107.60;103.33;;;1.20;99.90;;;;;;4387369;32;20620;-60
2022/03/18 06:21:41;;;;;;;111.33;106.97;;;1.20;99.90;;;;;;4388582;32;20211;-61
2022/03/18 06:24:09;;;;;;;113.47;108.73;;;1.30;99.90;;;;;;4389181;32;20255;-62
2022/03/18 06:26:37;;;;;;;114.83;110.27;;;1.30;99.90;;;;;;4389955;32;20267;-61
2022/03/18 06:29:05;;;;;;;112.23;107.77;;;1.40;99.90;;;;;;4389153;32;20156;-61
2022/03/18 06:31:34;;;;;;;114.27;109.67;;;1.50;99.90;;;;;;4388535;32;20651;-59
2022/03/18 06:34:02;;;;;;;113.90;109.30;;;1.60;99.90;;;;;;4387848;32;20175;-61
2022/03/18 06:36:30;;;;;;;107.47;103.20;;;1.60;99.90;;;;;;4385840;32;20524;-60
2022/03/18 06:38:57;;;;;;;104.73;100.63;;;1.70;99.90;;;;;;4387980;32;20235;-60
2022/03/18 06:41:25;;;;;;;146.23;134.83;;;1.70;99.90;;;;;;4388418;32;20211;-61
2022/03/18 06:43:52;;;;;;;109.77;105.00;;;1.80;99.90;;;;;;4386789;32;20156;-61
2022/03/18 06:46:18;;;;;;;104.47;99.87;;;2.00;99.90;;;;;;4388664;32;20201;-61
2022/03/18 06:48:46;;;;;;;94.00;90.03;;;2.10;99.90;;;;;;4388366;32;20218;-62
2022/03/18 06:51:13;;;;;;;98.80;94.83;;;2.20;99.90;;;;;;4388395;32;20148;-61
2022/03/18 06:53:41;;;;;;;114.30;107.90;;;2.30;99.90;;;;;;4389159;32;20222;-61
2022/03/18 06:56:08;;;;;;;94.83;90.73;;;2.40;99.90;;;;;;4388236;32;20263;-61
2022/03/18 06:58:36;;;;;;;91.47;87.67;;;2.50;99.90;;;;;;4388323;32;20168;-61
2022/03/18 07:01:02;;;;;;;92.23;88.47;;;2.60;99.90;;;;;;4389529;32;20166;-61
2022/03/18 07:03:29;;;;;;;87.20;83.67;;;2.70;99.90;;;;;;4388245;32;20219;-60
2022/03/18 07:05:56;;;;;;;85.37;81.80;;;2.80;99.90;;;;;;4388219;32;20160;-60
2022/03/18 07:08:23;;;;;;;77.00;73.93;;;3.00;99.90;;;;;;4388358;32;20227;-61
2022/03/18 07:10:52;;;;;;;77.43;74.23;;;3.10;99.90;;;;;;4388446;32;20288;-61
2022/03/18 07:13:18;;;;;;;70.77;67.87;;;3.20;99.90;;;;;;4389052;32;20198;-61
2022/03/18 07:15:45;;;;;;;68.77;65.97;;;3.40;99.90;;;;;;4389802;32;20171;-61
2022/03/18 07:18:11;;;;;;;66.03;63.37;;;3.50;99.90;;;;;;4388283;32;20155;-60
2022/03/18 07:20:39;;;;;;;62.87;60.37;;;3.70;99.90;;;;;;4389766;32;20447;-60
2022/03/18 07:23:08;;;;;;;62.43;59.83;;;3.80;99.90;;;;;;4390671;32;20189;-61
2022/03/18 07:25:36;;;;;;;59.77;57.33;;;3.90;99.90;;;;;;4390009;32;20274;-61
2022/03/18 07:28:07;;;;;;;50.93;48.80;;;4.10;99.90;;;;;;4389087;32;20217;-60
2022/03/18 07:30:34;;;;;;;49.43;47.37;;;4.20;99.90;;;;;;4389940;32;20444;-61
2022/03/18 07:33:01;;;;;;;49.97;47.80;;;4.40;99.90;;;;;;4390245;32;20237;-60
2022/03/18 07:35:28;;;;;;;46.77;44.77;;;4.60;99.90;;;;;;4389705;32;20225;-61
2022/03/18 07:37:55;;;;;;;46.10;44.10;;;4.70;99.90;;;;;;4387267;32;20172;-61
2022/03/18 07:40:22;;;;;;;41.77;40.00;;;4.90;99.90;;;;;;4388798;32;20227;-61
2022/03/18 07:42:51;;;;;;;40.60;38.87;;;5.00;99.90;;;;;;4388615;32;20222;-61
2022/03/18 07:45:21;;;;;;;39.93;38.27;;;5.20;99.90;;;;;;4391677;32;20553;-60
2022/03/18 07:47:49;;;;;;;37.87;36.23;;;5.40;99.90;;;;;;4391485;32;20148;-61
2022/03/18 07:50:20;;;;;;;35.20;33.63;;;5.60;99.90;;;;;;4390462;32;20163;-59
2022/03/18 07:52:48;;;;;;;35.60;34.07;;;5.70;99.90;;;;;;4392254;32;20151;-60
2022/03/18 07:55:15;;;;;;;33.93;32.33;;;6.00;99.90;;;;;;4390112;32;20149;-61
2022/03/18 07:57:41;;;;;;;32.63;31.13;;;6.20;99.90;;;;;;4392763;32;20167;-62
2022/03/18 08:00:10;;;;;;;28.10;26.87;;;6.30;99.90;;;;;;4342071;32;1672435;-62
2022/03/18 08:02:40;;;;;;;28.97;27.67;;;6.50;99.90;;;;;;4391068;32;20178;-61
2022/03/18 08:05:10;;;;;;;30.63;29.27;;;6.60;99.90;;;;;;4392585;32;20167;-61
2022/03/18 08:07:38;;;;;;;29.60;28.13;;;6.80;99.90;;;;;;4390248;32;20136;-62
2022/03/18 08:10:06;;;;;;;32.43;30.93;;;6.90;99.90;;;;;;4392795;32;20143;-62
2022/03/18 08:12:34;;;;;;;27.37;26.17;;;7.10;99.90;;;;;;4392873;32;20226;-62
2022/03/18 08:15:04;;;;;;;30.13;28.87;;;7.30;99.90;;;;;;4392364;32;20473;-62
2022/03/18 08:17:32;;;;;;;32.30;30.93;;;7.50;99.90;;;;;;4391918;32;20232;-61
2022/03/18 08:20:00;;;;;;;35.03;33.50;;;7.70;99.90;;;;;;4392252;32;20175;-60
2022/03/18 08:22:28;;;;;;;34.60;33.07;;;7.90;99.90;;;;;;4391803;32;20167;-61
2022/03/18 08:24:56;;;;;;;38.07;36.37;;;8.10;99.90;;;;;;4393665;32;20187;-60
2022/03/18 08:27:23;;;;;;;37.87;36.20;;;8.30;99.90;;;;;;4387923;32;20192;-59
2022/03/18 08:29:50;;;;;;;38.37;36.83;;;8.60;99.90;;;;;;4387645;32;20163;-61
2022/03/18 08:32:18;;;;;;;42.90;41.13;;;8.70;99.90;;;;;;4391424;32;20146;-62
2022/03/18 08:34:45;;;;;;;42.97;41.17;;;8.90;99.90;;;;;;4392492;32;20146;-62
2022/03/18 08:37:13;;;;;;;52.27;50.13;;;9.20;99.90;;;;;;4391818;32;20159;-62
2022/03/18 08:39:41;;;;;;;62.53;59.90;;;9.40;99.90;;;;;;4395870;32;20183;-62
2022/03/18 08:42:08;;;;;;;68.13;65.23;;;9.60;99.90;;;;;;4387141;32;20136;-61
2022/03/18 08:44:35;;;;;;;76.27;73.13;;;9.80;99.90;;;;;;4391568;32;20212;-62
2022/03/18 08:47:02;;;;;;;81.00;77.50;;;10.00;99.90;;;;;;4391337;32;20165;-61
2022/03/18 08:49:29;;;;;;;81.93;78.60;;;10.20;99.90;;;;;;4392153;32;20146;-61
2022/03/18 08:51:57;;;;;;;74.93;71.80;;;10.30;99.90;;;;;;4392534;32;20495;-61
2022/03/18 08:54:25;;;;;;;60.70;58.13;;;10.20;99.90;;;;;;4394133;32;20170;-62
2022/03/18 08:56:52;;;;;;;51.07;48.83;;;10.20;99.90;;;;;;4392944;32;20460;-63
2022/03/18 08:59:23;;;;;;;63.37;60.67;;;10.40;99.90;;;;;;4392212;32;20147;-63
2022/03/18 09:01:50;;;;;;;65.83;63.03;;;10.40;99.90;;;;;;4391133;32;20205;-62
2022/03/18 09:04:16;;;;;;;57.57;55.23;;;10.60;99.90;;;;;;4392922;32;20140;-62
2022/03/18 09:06:43;;;;;;;61.40;58.70;;;10.70;99.90;;;;;;4391606;32;20171;-61
2022/03/18 09:09:10;;;;;;;62.27;59.73;;;10.90;99.90;;;;;;4391175;32;20143;-62
2022/03/18 09:11:38;;;;;;;66.33;63.53;;;10.90;99.90;;;;;;4392321;32;20163;-62
2022/03/18 09:14:05;;;;;;;65.80;63.03;;;10.60;99.90;;;;;;4393633;32;20168;-62
2022/03/18 09:16:36;;;;;;;61.73;59.10;;;10.60;99.90;;;;;;4391829;32;20148;-63
2022/03/18 09:19:03;;;;;;;61.83;59.30;;;10.70;99.90;;;;;;4390438;32;20186;-63
2022/03/18 09:21:30;;;;;;;66.13;63.40;;;10.90;99.90;;;;;;4391793;32;20542;-61
2022/03/18 09:23:57;;;;;;;62.97;60.33;;;11.00;99.90;;;;;;4392370;32;20211;-61
2022/03/18 09:26:24;;;;;;;60.50;57.93;;;11.00;99.90;;;;;;4390893;32;20551;-61
2022/03/18 09:28:53;;;;;;;60.70;58.20;;;11.10;99.90;;;;;;4388267;32;20511;-61
2022/03/18 09:31:19;;;;;;;65.73;63.07;;;11.10;99.90;;;;;;4388848;32;20227;-61
2022/03/18 09:33:47;;;;;;;66.40;63.77;;;11.30;99.90;;;;;;4390966;32;20194;-62
2022/03/18 09:36:18;;;;;;;69.00;66.20;;;11.40;99.90;;;;;;4390679;32;20142;-62
2022/03/18 09:38:45;;;;;;;71.53;68.27;;;11.50;99.90;;;;;;4391203;32;20229;-60
2022/03/18 09:41:13;;;;;;;80.57;77.33;;;11.60;99.90;;;;;;4390808;32;20144;-61
2022/03/18 09:43:41;;;;;;;83.53;80.17;;;11.80;99.90;;;;;;4391863;32;20144;-63
2022/03/18 09:46:11;;;;;;;78.80;75.63;;;12.00;99.90;;;;;;4391443;32;20143;-61
2022/03/18 09:48:39;;;;;;;88.63;85.13;;;12.20;99.90;;;;;;4389515;32;20163;-60
2022/03/18 09:51:06;;;;;;;84.10;80.80;;;12.10;99.90;;;;;;4386572;32;20159;-61
2022/03/18 09:53:34;;;;;;;100.67;96.73;;;12.20;99.90;;;;;;4391108;32;20179;-60
2022/03/18 09:56:02;;;;;;;88.67;85.13;;;12.40;99.90;;;;;;4391661;32;20577;-60
2022/03/18 09:58:28;;;;;;;86.13;82.77;;;12.50;99.90;;;;;;4390886;32;20532;-63
2022/03/18 10:00:57;;;;;;;93.77;90.10;;;12.60;99.90;;;;;;4390582;32;20167;-62
2022/03/18 10:03:37;;;;;;;107.57;103.33;;;12.70;99.90;;;;;;4389260;32;20155;-61
2022/03/18 10:06:04;;;;;;;96.70;92.90;;;12.80;99.90;;;;;;4388227;32;20176;-61
2022/03/18 10:08:49;;;;;;;97.87;94.00;;;12.90;99.90;;;;;;4387847;32;20152;-61
2022/03/18 10:11:18;;;;;;;95.60;91.83;;;12.90;99.90;;;;;;4387676;32;20207;-61
2022/03/18 10:13:53;;;;;;;111.90;107.43;;;13.00;99.90;;;;;;4388827;32;20156;-61
2022/03/18 10:16:31;;;;;;;116.17;111.63;;;13.00;99.90;;;;;;4389675;32;20223;-59
2022/03/18 10:19:01;;;;;;;98.17;94.27;;;13.00;99.90;;;;;;4391055;32;20555;-61
2022/03/18 10:21:29;;;;;;;120.07;115.37;;;13.00;99.90;;;;;;4388210;32;20144;-60
2022/03/18 10:24:08;;;;;;;110.37;105.97;;;13.10;99.90;;;;;;4388614;32;20170;-61
2022/03/18 10:26:38;;;;;;;107.93;103.70;;;13.30;99.90;;;;;;4384782;32;20152;-61
2022/03/18 10:29:11;;;;;;;98.70;94.80;;;13.30;99.90;;;;;;4376089;32;20533;-61
2022/03/18 10:31:39;;;;;;;111.10;106.67;;;13.40;99.90;;;;;;4387801;32;20159;-61
2022/03/18 10:37:08;;;;;;;117.70;113.07;;;13.30;99.90;;;;;;4392168;32;20159;-61
2022/03/18 10:39:37;;;;;;;109.43;105.10;;;13.40;99.90;;;;;;4379946;32;20568;-62
2022/03/18 10:42:06;;;;;;;116.73;112.10;;;13.50;99.90;;;;;;4376052;32;20150;-62
2022/03/18 10:44:45;;;;;;;117.83;112.90;;;13.60;99.90;;;;;;4387040;32;20140;-62
2022/03/18 10:47:26;;;;;;;117.47;112.77;;;13.60;99.90;;;;;;4390801;32;20133;-62
2022/03/18 10:49:55;;;;;;;110.57;106.27;;;13.50;99.90;;;;;;4391245;32;20131;-62
2022/03/18 10:52:24;;;;;;;122.10;117.30;;;13.60;99.90;;;;;;4390822;32;20186;-62
2022/03/18 10:54:51;;;;;;;122.07;117.30;;;13.60;99.90;;;;;;4390705;32;20235;-61
2022/03/18 10:57:18;;;;;;;113.13;108.67;;;13.70;99.90;;;;;;4390685;32;20136;-62
2022/03/18 10:59:45;;;;;;;117.47;112.83;;;13.70;99.90;;;;;;4389825;32;20152;-61
2022/03/18 11:02:17;;;;;;;127.30;122.27;;;13.70;99.90;;;;;;4375667;32;20154;-62
2022/03/18 11:04:44;;;;;;;113.43;109.00;;;13.80;99.90;;;;;;4375632;32;20176;-62
2022/03/18 11:07:31;;;;;;;121.93;117.13;;;13.80;99.90;;;;;;4376485;32;20141;-62
2022/03/18 11:12:47;;;;;;;123.17;118.30;;;13.90;99.90;;;;;;4376190;32;20497;-62
2022/03/18 11:15:16;;;;;;;128.47;123.40;;;14.00;99.90;;;;;;4375742;32;20169;-62
2022/03/18 11:17:44;;;;;;;119.97;115.23;;;14.10;99.80;;;;;;4381679;32;20148;-62
2022/03/18 11:20:11;;;;;;;119.20;114.50;;;14.20;99.40;;;;;;4391619;32;20167;-61
2022/03/18 11:22:41;;;;;;;122.37;117.60;;;14.20;99.40;;;;;;4392181;32;20140;-62
2022/03/18 11:25:10;;;;;;;135.13;129.80;;;14.20;99.10;;;;;;4390604;32;20135;-61
2022/03/18 11:27:39;;;;;;;124.43;119.47;;;14.30;99.00;;;;;;4390440;32;20185;-62
2022/03/18 11:30:21;;;;;;;120.93;116.13;;;14.40;98.90;;;;;;4390542;32;20139;-61
2022/03/18 11:33:22;;;;;;;112.00;107.63;;;14.50;98.60;;;;;;4391391;32;20500;-61
2022/03/18 11:36:12;;;;;;;117.97;113.37;;;14.50;98.40;;;;;;4343415;33;20148;-62
2022/03/18 11:39:02;;;;;;;112.60;108.07;;;14.50;98.70;;;;;;4343913;33;20153;-61
2022/03/18 11:41:53;;;;;;;106.13;101.93;;;14.60;98.30;;;;;;4341833;33;20161;-62
2022/03/18 11:44:43;;;;;;;119.47;114.83;;;14.60;98.00;;;;;;4328788;33;20227;-62
2022/03/18 11:47:41;;;;;;;127.63;122.60;;;14.70;97.80;;;;;;4328968;33;20376;-61
2022/03/18 11:50:48;;;;;;;118.70;114.00;;;14.80;97.70;;;;;;4329167;33;20141;-62
2022/03/18 11:53:31;;;;;;;114.20;109.63;;;14.80;97.30;;;;;;4328596;33;20152;-62
2022/03/18 11:56:13;;;;;;;117.53;112.97;;;14.40;97.30;;;;;;4328734;33;20204;-62
2022/03/18 11:58:40;;;;;;;137.60;132.23;;;14.50;97.60;;;;;;4330288;33;20155;-62
2022/03/18 12:01:06;;;;;;;127.57;122.53;;;14.70;97.80;;;;;;4343324;33;20484;-62
2022/03/18 12:03:37;;;;;;;117.83;113.27;;;14.80;97.00;;;;;;4345016;33;20160;-61
2022/03/18 12:06:04;;;;;;;119.53;114.87;;;14.80;97.00;;;;;;4343282;33;20149;-61
2022/03/18 12:09:01;;;;;;;121.77;116.97;;;14.90;96.60;;;;;;4343448;33;20251;-61
2022/03/18 12:11:38;;;;;;;107.50;103.30;;;14.80;97.00;;;;;;4360170;32;20168;-61
2022/03/18 12:14:08;;;;;;;104.47;100.37;;;14.80;96.10;;;;;;4377798;32;20139;-61
2022/03/18 12:16:35;;;;;;;115.10;110.57;;;14.70;95.80;;;;;;4374933;32;20136;-62
2022/03/18 12:19:11;;;;;;;109.50;105.20;;;14.60;96.20;;;;;;4374992;32;20145;-62
2022/03/18 12:21:42;;;;;;;108.07;103.80;;;14.70;95.60;;;;;;4375130;32;20156;-62
2022/03/18 12:24:11;;;;;;;117.53;112.93;;;14.70;95.70;;;;;;4376707;32;20151;-61
2022/03/18 12:26:42;;;;;;;121.37;116.63;;;14.70;96.20;;;;;;4375487;32;20170;-62
2022/03/18 12:29:10;;;;;;;112.97;108.50;;;14.70;95.60;;;;;;4374938;32;20171;-61
2022/03/18 12:31:38;;;;;;;123.60;118.73;;;14.90;95.60;;;;;;4377814;32;20579;-61
2022/03/18 12:34:08;;;;;;;132.53;127.40;;;15.20;96.00;;;;;;4377829;32;20132;-61
2022/03/18 12:36:36;;;;;;;127.07;121.03;;;15.80;95.70;;;;;;4378104;32;20141;-61
2022/03/18 12:39:11;;;;;;;120.83;116.13;;;16.20;94.70;;;;;;4377994;32;20537;-61
2022/03/18 12:41:40;;;;;;;122.90;118.13;;;16.30;94.20;;;;;;4377467;32;20140;-61
2022/03/18 12:44:08;;;;;;;121.17;116.43;;;16.20;93.80;;;;;;4377347;32;20140;-61
2022/03/18 12:46:37;;;;;;;122.17;117.33;;;15.80;94.30;;;;;;4379744;32;20193;-61
2022/03/18 12:49:10;;;;;;;122.87;118.07;;;15.70;94.90;;;;;;4391077;32;20231;-61
2022/03/18 12:51:37;;;;;;;116.73;112.13;;;15.80;94.70;;;;;;4389254;32;20217;-61
2022/03/18 12:54:04;;;;;;;117.03;112.40;;;16.00;94.30;;;;;;4389727;32;20152;-61
2022/03/18 12:56:31;;;;;;;122.43;117.60;;;16.10;93.70;;;;;;4393606;32;20634;-61
2022/03/18 12:58:58;;;;;;;109.80;105.47;;;15.80;93.80;;;;;;4390629;32;20176;-62